createdAt,value
2017-08-06T00:01:28.514Z,74.09
2017-08-06T00:03:54.467Z,74.08
2017-08-06T00:06:20.337Z,74.24
2017-08-06T00:08:46.219Z,74.27
2017-08-06T00:11:12.099Z,74.90
2017-08-06T00:13:37.947Z,75.71
2017-08-06T00:16:03.847Z,75.68
2017-08-06T00:18:29.762Z,76.31
2017-08-06T00:20:55.604Z,76.55
2017-08-06T00:23:21.419Z,76.73
2017-08-06T00:25:47.327Z,76.92
2017-08-06T00:28:13.232Z,76.74
2017-08-06T00:30:39.689Z,76.67
2017-08-06T00:33:05.560Z,77.05
2017-08-06T00:35:31.434Z,76.84
2017-08-06T00:37:57.358Z,77.04
2017-08-06T00:40:23.158Z,76.62
2017-08-06T00:42:48.969Z,77.08
2017-08-06T00:45:14.915Z,76.54
2017-08-06T00:47:40.891Z,76.41
2017-08-06T00:50:06.823Z,76.43
2017-08-06T00:52:32.662Z,76.56
2017-08-06T00:54:58.532Z,76.50
2017-08-06T00:57:24.375Z,77.04
2017-08-06T00:59:50.340Z,76.88
2017-08-06T01:02:16.216Z,77.10
2017-08-06T01:04:42.062Z,77.14
2017-08-06T01:07:07.969Z,77.79
2017-08-06T01:09:33.831Z,77.79
2017-08-06T01:11:59.647Z,77.92
2017-08-06T01:14:25.445Z,77.67
2017-08-06T01:16:51.304Z,77.81
2017-08-06T01:19:17.107Z,78.12
2017-08-06T01:21:42.911Z,78.51
2017-08-06T01:24:08.739Z,78.28
2017-08-06T01:26:34.600Z,79.38
2017-08-06T01:29:00.536Z,78.76
2017-08-06T01:31:26.444Z,78.80
2017-08-06T01:33:52.376Z,78.56
2017-08-06T01:36:18.210Z,79.28
2017-08-06T01:38:44.043Z,79.04
2017-08-06T01:41:10.002Z,78.76
2017-08-06T01:43:35.859Z,78.41
2017-08-06T01:46:01.688Z,78.51
2017-08-06T01:48:27.551Z,79.52
2017-08-06T01:50:53.430Z,79.28
2017-08-06T01:53:19.334Z,79.52
2017-08-06T01:55:45.219Z,79.10
2017-08-06T01:58:11.048Z,78.85
2017-08-06T02:00:36.874Z,79.11
2017-08-06T02:03:02.698Z,79.92
2017-08-06T02:05:28.502Z,79.88
2017-08-06T02:07:54.305Z,79.84
2017-08-06T02:10:20.163Z,79.48
2017-08-06T02:12:45.969Z,80.01
2017-08-06T02:15:11.910Z,80.03
2017-08-06T02:17:37.740Z,80.29
2017-08-06T02:20:03.574Z,80.56
2017-08-06T02:22:29.421Z,80.25
2017-08-06T02:24:55.238Z,80.26
2017-08-06T02:27:21.106Z,80.63
2017-08-06T02:29:46.920Z,80.66
2017-08-06T02:32:12.719Z,80.66
2017-08-06T02:34:38.570Z,80.86
2017-08-06T02:37:04.546Z,81.08
2017-08-06T02:39:30.400Z,80.90
2017-08-06T02:41:56.212Z,80.58
2017-08-06T02:44:22.019Z,80.05
2017-08-06T02:46:47.871Z,80.24
2017-08-06T02:49:13.804Z,80.22
2017-08-06T02:51:39.692Z,80.59
2017-08-06T02:54:05.504Z,80.51
2017-08-06T02:56:31.330Z,81.10
2017-08-06T02:58:57.133Z,82.50
2017-08-06T03:01:22.970Z,81.72
2017-08-06T03:03:48.772Z,81.89
2017-08-06T03:06:14.822Z,81.69
2017-08-06T03:08:40.752Z,81.28
2017-08-06T03:11:06.567Z,81.16
2017-08-06T03:13:32.417Z,81.02
2017-08-06T03:15:58.236Z,80.69
2017-08-06T03:18:24.094Z,80.85
2017-08-06T03:20:49.896Z,81.42
2017-08-06T03:23:15.731Z,81.48
2017-08-06T03:25:41.527Z,81.49
2017-08-06T03:28:07.320Z,81.49
2017-08-06T03:30:33.215Z,81.93
2017-08-06T03:32:59.232Z,81.61
2017-08-06T03:35:25.225Z,82.07
2017-08-06T03:37:51.033Z,82.05
2017-08-06T03:40:16.884Z,81.65
2017-08-06T03:42:42.692Z,81.59
2017-08-06T03:45:08.511Z,81.63
2017-08-06T03:47:34.544Z,81.27
2017-08-06T03:50:00.487Z,81.81
2017-08-06T03:52:26.364Z,82.07
2017-08-06T03:54:52.168Z,81.97
2017-08-06T03:57:17.944Z,81.95
2017-08-06T03:59:43.770Z,82.23
2017-08-06T04:02:09.556Z,82.29
2017-08-06T04:04:35.460Z,82.75
2017-08-06T04:07:01.264Z,82.45
2017-08-06T04:09:27.095Z,82.19
2017-08-06T04:11:52.864Z,82.24
2017-08-06T04:14:18.688Z,82.09
2017-08-06T04:16:44.505Z,82.47
2017-08-06T04:19:10.290Z,83.56
2017-08-06T04:21:36.124Z,82.73
2017-08-06T04:24:01.940Z,82.44
2017-08-06T04:26:27.754Z,82.48
2017-08-06T04:28:53.562Z,82.51
2017-08-06T04:31:19.356Z,81.88
2017-08-06T04:33:45.190Z,81.40
2017-08-06T04:36:11.119Z,81.42
2017-08-06T04:38:36.930Z,81.33
2017-08-06T04:41:02.933Z,82.38
2017-08-06T04:43:28.739Z,82.53
2017-08-06T04:45:54.580Z,81.68
2017-08-06T04:48:20.380Z,80.71
2017-08-06T04:50:46.400Z,81.72
2017-08-06T04:53:12.214Z,80.98
2017-08-06T04:55:38.001Z,80.55
2017-08-06T04:58:03.772Z,80.65
2017-08-06T05:00:29.637Z,81.03
2017-08-06T05:02:55.501Z,80.68
2017-08-06T05:05:21.281Z,80.77
2017-08-06T05:07:47.109Z,81.05
2017-08-06T05:10:12.994Z,79.46
2017-08-06T05:12:38.893Z,77.91
2017-08-06T05:15:04.783Z,80.41
2017-08-06T05:17:30.617Z,79.81
2017-08-06T05:19:56.436Z,80.71
2017-08-06T05:22:22.221Z,80.50
2017-08-06T05:24:48.020Z,80.44
2017-08-06T05:27:13.886Z,80.58
2017-08-06T05:29:39.709Z,80.41
2017-08-06T05:32:05.484Z,80.74
2017-08-06T05:34:31.305Z,80.90
2017-08-06T05:36:57.200Z,79.88
2017-08-06T05:39:23.178Z,80.15
2017-08-06T05:41:49.004Z,80.31
2017-08-06T05:44:14.796Z,80.40
2017-08-06T05:46:41.321Z,79.68
2017-08-06T05:49:07.221Z,78.54
2017-08-06T05:51:33.032Z,78.08
2017-08-06T05:53:58.968Z,77.41
2017-08-06T05:56:24.870Z,77.72
2017-08-06T05:58:50.737Z,78.01
2017-08-06T06:01:16.533Z,75.20
2017-08-06T06:03:42.338Z,74.57
2017-08-06T06:06:08.232Z,74.24
2017-08-06T06:08:34.049Z,73.86
2017-08-06T06:10:59.845Z,75.63
2017-08-06T06:13:25.661Z,75.77
2017-08-06T06:15:51.533Z,73.26
2017-08-06T06:18:17.509Z,72.33
2017-08-06T06:20:43.337Z,72.34
2017-08-06T06:23:09.146Z,72.16
2017-08-06T06:25:34.980Z,73.48
2017-08-06T06:28:00.825Z,71.96
2017-08-06T06:30:26.801Z,71.22
2017-08-06T06:32:52.643Z,69.88
2017-08-06T06:35:18.477Z,69.19
2017-08-06T06:37:44.268Z,68.54
2017-08-06T06:40:10.078Z,67.30
2017-08-06T06:42:35.933Z,65.06
2017-08-06T06:45:01.832Z,67.32
2017-08-06T06:47:27.649Z,66.57
2017-08-06T06:49:53.496Z,66.42
2017-08-06T06:52:19.465Z,64.28
2017-08-06T06:54:45.332Z,61.45
2017-08-06T06:57:11.185Z,59.61
2017-08-06T06:59:37.055Z,60.23
2017-08-06T07:02:02.936Z,60.07
2017-08-06T07:04:28.840Z,58.42
2017-08-06T07:06:54.638Z,57.86
2017-08-06T07:09:20.426Z,57.88
2017-08-06T07:11:46.565Z,56.65
2017-08-06T07:14:12.365Z,57.87
2017-08-06T07:16:38.225Z,57.03
2017-08-06T07:19:04.137Z,55.93
2017-08-06T07:21:29.914Z,55.06
2017-08-06T07:23:55.796Z,52.97
2017-08-06T07:26:21.577Z,54.52
2017-08-06T07:28:47.520Z,54.58
2017-08-06T07:31:13.521Z,54.58
2017-08-06T07:33:39.513Z,53.49
2017-08-06T07:36:05.342Z,52.43
2017-08-06T07:38:31.157Z,53.10
2017-08-06T07:40:56.982Z,51.86
2017-08-06T07:43:22.810Z,53.25
2017-08-06T07:45:48.613Z,52.92
2017-08-06T07:48:14.388Z,54.12
2017-08-06T07:50:40.195Z,53.42
2017-08-06T07:53:06.009Z,55.31
2017-08-06T07:55:31.850Z,56.23
2017-08-06T07:57:57.651Z,58.00
2017-08-06T08:00:23.576Z,58.51
2017-08-06T08:02:49.474Z,59.09
2017-08-06T08:05:15.276Z,58.07
2017-08-06T08:07:41.253Z,57.18
2017-08-06T08:10:07.121Z,57.63
2017-08-06T08:12:32.987Z,55.77
2017-08-06T08:14:58.813Z,54.55
2017-08-06T08:17:24.618Z,53.74
2017-08-06T08:19:51.049Z,52.31
2017-08-06T08:22:16.915Z,52.35
2017-08-06T08:24:42.744Z,54.12
2017-08-06T08:27:08.573Z,53.82
2017-08-06T08:29:34.586Z,54.99
2017-08-06T08:32:00.374Z,51.76
2017-08-06T08:34:26.157Z,52.35
2017-08-06T08:36:51.982Z,49.56
2017-08-06T08:39:17.858Z,48.32
2017-08-06T08:41:43.709Z,46.98
2017-08-06T08:44:09.689Z,45.64
2017-08-06T08:46:37.082Z,46.27
2017-08-06T08:49:02.928Z,44.98
2017-08-06T08:51:28.886Z,42.30
2017-08-06T08:53:54.743Z,41.92
2017-08-06T08:56:20.567Z,39.42
2017-08-06T08:58:46.418Z,44.17
2017-08-06T09:01:12.217Z,47.97
2017-08-06T09:03:38.016Z,49.11
2017-08-06T09:06:03.858Z,47.59
2017-08-06T09:08:29.736Z,45.15
2017-08-06T09:10:55.549Z,44.81
2017-08-06T09:13:21.385Z,44.68
2017-08-06T09:15:47.268Z,44.31
2017-08-06T09:18:13.127Z,41.81
2017-08-06T09:20:38.965Z,40.74
2017-08-06T09:23:04.880Z,39.28
2017-08-06T09:25:30.810Z,40.84
2017-08-06T09:27:56.652Z,41.22
2017-08-06T09:30:22.514Z,42.86
2017-08-06T09:32:48.325Z,43.65
2017-08-06T09:35:14.170Z,44.13
2017-08-06T09:37:39.970Z,42.83
2017-08-06T09:40:05.783Z,42.71
2017-08-06T09:42:31.639Z,44.46
2017-08-06T09:44:57.560Z,43.94
2017-08-06T09:47:23.486Z,41.43
2017-08-06T09:49:49.504Z,38.03
2017-08-06T09:52:15.528Z,38.40
2017-08-06T09:54:41.478Z,38.95
2017-08-06T09:57:07.337Z,40.73
2017-08-06T09:59:33.161Z,41.16
2017-08-06T10:01:59.200Z,38.90
2017-08-06T10:04:25.232Z,36.88
2017-08-06T10:06:51.240Z,34.82
2017-08-06T10:09:17.268Z,33.87
2017-08-06T10:11:43.291Z,37.19
2017-08-06T10:14:09.229Z,37.76
2017-08-06T10:16:35.237Z,38.60
2017-08-06T10:19:01.180Z,40.39
2017-08-06T10:21:27.172Z,40.09
2017-08-06T10:23:53.226Z,39.50
2017-08-06T10:26:19.127Z,37.49
2017-08-06T10:28:45.079Z,37.55
2017-08-06T10:31:10.904Z,37.83
2017-08-06T10:33:36.796Z,37.77
2017-08-06T10:36:02.749Z,39.43
2017-08-06T10:38:28.651Z,38.40
2017-08-06T10:40:54.565Z,38.92
2017-08-06T10:43:20.537Z,39.39
2017-08-06T10:45:46.385Z,39.42
2017-08-06T10:48:12.206Z,40.08
2017-08-06T10:50:38.230Z,37.55
2017-08-06T10:53:04.238Z,36.68
2017-08-06T10:55:30.080Z,36.04
2017-08-06T10:57:55.871Z,35.46
2017-08-06T11:00:21.748Z,32.60
2017-08-06T11:02:47.727Z,33.39
2017-08-06T11:05:13.757Z,33.06
2017-08-06T11:07:39.784Z,30.43
2017-08-06T11:10:05.593Z,34.55
2017-08-06T11:12:31.652Z,36.60
2017-08-06T11:14:57.657Z,35.81
2017-08-06T11:17:23.656Z,38.80
2017-08-06T11:19:49.717Z,38.38
2017-08-06T11:22:15.643Z,32.79
2017-08-06T11:24:41.500Z,31.70
2017-08-06T11:27:07.359Z,30.24
2017-08-06T11:29:33.186Z,32.44
2017-08-06T11:31:59.100Z,34.65
2017-08-06T11:34:25.060Z,37.02
2017-08-06T11:36:50.882Z,37.53
2017-08-06T11:39:16.700Z,37.96
2017-08-06T11:41:42.703Z,38.72
2017-08-06T11:44:08.539Z,38.94
2017-08-06T11:46:34.510Z,37.89
2017-08-06T11:49:00.379Z,38.17
2017-08-06T11:51:26.269Z,38.05
2017-08-06T11:53:52.087Z,37.27
2017-08-06T11:56:17.944Z,34.25
2017-08-06T11:58:43.824Z,31.84
2017-08-06T12:01:09.658Z,32.09
2017-08-06T12:03:35.564Z,33.39
2017-08-06T12:06:01.452Z,36.36
2017-08-06T12:08:27.359Z,37.41
2017-08-06T12:10:53.188Z,38.23
2017-08-06T12:13:19.042Z,37.75
2017-08-06T12:15:44.900Z,37.03
2017-08-06T12:18:10.777Z,37.43
2017-08-06T12:20:36.657Z,34.91
2017-08-06T12:23:02.483Z,34.79
2017-08-06T12:25:28.305Z,33.47
2017-08-06T12:27:54.212Z,35.58
2017-08-06T12:30:20.081Z,34.08
2017-08-06T12:32:45.936Z,31.70
2017-08-06T12:35:11.751Z,35.75
2017-08-06T12:37:37.605Z,35.61
2017-08-06T12:40:03.452Z,35.11
2017-08-06T12:42:29.463Z,36.58
2017-08-06T12:44:55.340Z,32.20
2017-08-06T12:47:21.335Z,33.88
2017-08-06T12:49:47.235Z,32.09
2017-08-06T12:52:13.151Z,29.96
2017-08-06T12:54:39.093Z,30.50
2017-08-06T12:57:04.955Z,31.93
2017-08-06T12:59:30.815Z,31.14
2017-08-06T13:01:56.851Z,30.91
2017-08-06T13:04:22.791Z,33.74
2017-08-06T13:06:48.602Z,35.44
2017-08-06T13:09:14.464Z,37.32
2017-08-06T13:11:40.309Z,34.70
2017-08-06T13:14:06.119Z,34.00
2017-08-06T13:16:31.966Z,30.44
2017-08-06T13:18:57.939Z,30.39
2017-08-06T13:21:23.808Z,27.34
2017-08-06T13:23:49.721Z,28.81
2017-08-06T13:26:15.568Z,29.06
2017-08-06T13:28:41.433Z,29.04
2017-08-06T13:31:07.248Z,29.14
2017-08-06T13:33:33.091Z,28.61
2017-08-06T13:35:58.967Z,32.63
2017-08-06T13:38:24.928Z,34.97
2017-08-06T13:40:50.737Z,33.87
2017-08-06T13:43:16.589Z,30.80
2017-08-06T13:45:42.503Z,32.11
2017-08-06T13:48:08.412Z,29.24
2017-08-06T13:50:34.435Z,31.77
2017-08-06T13:53:00.250Z,29.98
2017-08-06T13:55:26.323Z,29.86
2017-08-06T13:57:52.211Z,30.23
2017-08-06T14:00:18.044Z,31.52
2017-08-06T14:02:43.902Z,32.58
2017-08-06T14:05:09.748Z,32.78
2017-08-06T14:07:35.556Z,32.48
2017-08-06T14:10:01.390Z,31.96
2017-08-06T14:12:27.216Z,30.21
2017-08-06T14:14:53.059Z,30.19
2017-08-06T14:17:18.959Z,28.97
2017-08-06T14:19:44.906Z,29.11
2017-08-06T14:22:10.939Z,27.12
2017-08-06T14:24:36.830Z,29.24
2017-08-06T14:27:02.747Z,31.22
2017-08-06T14:29:28.596Z,32.39
2017-08-06T14:31:54.607Z,34.63
2017-08-06T14:34:20.513Z,34.50
2017-08-06T14:36:46.360Z,36.54
2017-08-06T14:39:12.201Z,36.17
2017-08-06T14:41:38.059Z,35.00
2017-08-06T14:44:03.879Z,34.67
2017-08-06T14:46:29.719Z,36.99
2017-08-06T14:48:55.624Z,35.77
2017-08-06T14:51:21.551Z,36.41
2017-08-06T14:53:47.495Z,35.68
2017-08-06T14:56:13.303Z,36.84
2017-08-06T14:58:39.152Z,34.66
2017-08-06T15:01:05.067Z,31.72
2017-08-06T15:03:30.888Z,32.94
2017-08-06T15:05:56.851Z,30.35
2017-08-06T15:08:22.688Z,30.74
2017-08-06T15:10:48.625Z,33.09
2017-08-06T15:13:14.521Z,33.23
2017-08-06T15:15:40.429Z,32.39
2017-08-06T15:18:06.271Z,31.75
2017-08-06T15:20:32.192Z,31.81
2017-08-06T15:22:58.184Z,31.83
2017-08-06T15:25:24.021Z,32.05
2017-08-06T15:27:49.842Z,31.52
2017-08-06T15:30:15.701Z,31.53
2017-08-06T15:32:41.612Z,33.32
2017-08-06T15:35:07.499Z,34.13
2017-08-06T15:37:33.562Z,35.35
2017-08-06T15:39:59.500Z,37.03
2017-08-06T15:42:25.321Z,36.29
2017-08-06T15:44:51.183Z,36.62
2017-08-06T15:47:17.230Z,35.93
2017-08-06T15:49:43.191Z,33.24
2017-08-06T15:52:09.024Z,31.72
2017-08-06T15:54:35.042Z,35.19
2017-08-06T15:57:00.927Z,36.91
2017-08-06T15:59:26.819Z,37.27
2017-08-06T16:01:52.727Z,37.85
2017-08-06T16:04:18.571Z,39.02
2017-08-06T16:06:44.461Z,38.48
2017-08-06T16:09:10.412Z,39.10
2017-08-06T16:11:36.320Z,40.13
2017-08-06T16:14:02.227Z,41.07
2017-08-06T16:16:28.075Z,40.49
2017-08-06T16:18:53.986Z,42.90
2017-08-06T16:21:19.909Z,42.22
2017-08-06T16:23:45.744Z,38.88
2017-08-06T16:26:11.632Z,38.56
2017-08-06T16:28:37.480Z,38.48
2017-08-06T16:31:03.286Z,36.65
2017-08-06T16:33:29.128Z,35.13
2017-08-06T16:35:54.993Z,36.56
2017-08-06T16:38:20.865Z,35.45
2017-08-06T16:40:46.830Z,34.05
2017-08-06T16:43:12.665Z,35.12
2017-08-06T16:45:38.468Z,35.47
2017-08-06T16:48:04.322Z,37.46
2017-08-06T16:50:30.231Z,35.96
2017-08-06T16:52:56.152Z,35.58
2017-08-06T16:55:22.204Z,36.53
2017-08-06T16:57:48.143Z,35.18
2017-08-06T17:00:13.951Z,35.29
2017-08-06T17:02:40.068Z,38.63
2017-08-06T17:05:06.087Z,39.84
2017-08-06T17:07:32.040Z,39.77
2017-08-06T17:09:57.971Z,40.06
2017-08-06T17:12:23.853Z,41.94
2017-08-06T17:14:49.657Z,42.16
2017-08-06T17:17:15.515Z,42.67
2017-08-06T17:19:41.313Z,43.17
2017-08-06T17:22:07.112Z,43.63
2017-08-06T17:24:32.953Z,44.47
2017-08-06T17:26:59.013Z,45.02
2017-08-06T17:29:24.985Z,44.87
2017-08-06T17:31:50.905Z,44.71
2017-08-06T17:34:16.754Z,45.42
2017-08-06T17:36:42.724Z,44.80
2017-08-06T17:39:08.611Z,46.02
2017-08-06T17:41:34.466Z,46.19
2017-08-06T17:44:00.277Z,46.78
2017-08-06T17:46:26.745Z,48.25
2017-08-06T17:48:52.637Z,48.37
2017-08-06T17:51:18.566Z,47.12
2017-08-06T17:53:44.428Z,47.44
2017-08-06T17:56:10.294Z,47.46
2017-08-06T17:58:36.322Z,45.82
2017-08-06T18:01:02.251Z,46.60
2017-08-06T18:03:28.177Z,48.11
2017-08-06T18:05:54.114Z,49.31
2017-08-06T18:08:20.051Z,51.02
2017-08-06T18:10:46.883Z,51.75
2017-08-06T18:13:12.863Z,51.70
2017-08-06T18:15:38.861Z,51.85
2017-08-06T18:18:04.725Z,52.18
2017-08-06T18:20:30.633Z,52.58
2017-08-06T18:22:56.485Z,53.45
2017-08-06T18:25:22.369Z,53.90
2017-08-06T18:27:48.149Z,52.71
2017-08-06T18:30:14.038Z,53.85
2017-08-06T18:32:39.932Z,54.60
2017-08-06T18:35:05.747Z,55.31
2017-08-06T18:37:31.600Z,55.23
2017-08-06T18:39:57.416Z,54.73
2017-08-06T18:42:23.271Z,54.98
2017-08-06T18:44:49.117Z,55.53
2017-08-06T18:47:15.138Z,55.42
2017-08-06T18:49:40.973Z,56.17
2017-08-06T18:52:06.846Z,55.93
2017-08-06T18:54:32.776Z,55.74
2017-08-06T18:56:58.623Z,57.01
2017-08-06T18:59:24.673Z,57.39
2017-08-06T19:01:50.607Z,57.13
2017-08-06T19:04:16.485Z,55.92
2017-08-06T19:06:42.361Z,56.32
2017-08-06T19:09:08.343Z,57.30
2017-08-06T19:11:34.391Z,58.72
2017-08-06T19:14:00.298Z,59.38
2017-08-06T19:16:26.223Z,59.19
2017-08-06T19:18:52.141Z,58.82
2017-08-06T19:21:17.987Z,58.18
2017-08-06T19:23:43.839Z,57.77
2017-08-06T19:26:09.645Z,57.25
2017-08-06T19:28:35.459Z,58.09
2017-08-06T19:31:01.351Z,59.02
2017-08-06T19:33:27.251Z,59.61
2017-08-06T19:35:53.201Z,59.73
2017-08-06T19:38:19.181Z,59.62
2017-08-06T19:40:45.006Z,59.88
2017-08-06T19:43:11.025Z,59.28
2017-08-06T19:45:36.942Z,58.96
2017-08-06T19:48:02.881Z,57.72
2017-08-06T19:50:28.708Z,57.53
2017-08-06T19:52:54.754Z,57.84
2017-08-06T19:55:20.654Z,58.36
2017-08-06T19:57:46.516Z,58.97
2017-08-06T20:00:12.423Z,60.67
2017-08-06T20:02:39.129Z,60.98
2017-08-06T20:05:04.947Z,61.26
2017-08-06T20:07:30.795Z,62.41
2017-08-06T20:09:56.663Z,62.68
2017-08-06T20:12:22.540Z,63.15
2017-08-06T20:14:48.468Z,63.54
2017-08-06T20:17:14.332Z,63.50
2017-08-06T20:19:40.206Z,64.53
2017-08-06T20:22:06.175Z,64.72
2017-08-06T20:24:31.996Z,65.30
2017-08-06T20:26:57.843Z,65.22
2017-08-06T20:29:23.746Z,64.51
2017-08-06T20:31:49.614Z,64.52
2017-08-06T20:34:15.460Z,65.02
2017-08-06T20:36:41.331Z,64.80
2017-08-06T20:39:07.231Z,65.61
2017-08-06T20:41:33.042Z,65.71
2017-08-06T20:43:58.896Z,66.09
2017-08-06T20:46:24.718Z,66.70
2017-08-06T20:48:50.579Z,67.00
2017-08-06T20:51:16.407Z,67.05
2017-08-06T20:53:42.228Z,67.12
2017-08-06T20:56:08.206Z,67.29
2017-08-06T20:58:34.012Z,68.40
2017-08-06T21:00:59.888Z,68.70
2017-08-06T21:03:25.947Z,68.76
2017-08-06T21:05:51.857Z,68.72
2017-08-06T21:08:17.682Z,68.67
2017-08-06T21:10:43.503Z,68.67
2017-08-06T21:13:09.727Z,69.29
2017-08-06T21:15:35.548Z,69.45
2017-08-06T21:18:01.391Z,69.87
2017-08-06T21:20:27.331Z,69.88
2017-08-06T21:22:53.244Z,69.67
2017-08-06T21:25:19.138Z,69.76
2017-08-06T21:27:45.043Z,70.77
2017-08-06T21:30:10.967Z,70.92
2017-08-06T21:32:36.884Z,70.94
2017-08-06T21:35:02.796Z,70.37
2017-08-06T21:37:29.276Z,69.64
2017-08-06T21:39:55.159Z,69.60
2017-08-06T21:42:21.026Z,70.00
2017-08-06T21:44:46.887Z,70.53
2017-08-06T21:47:12.890Z,70.03
2017-08-06T21:49:38.742Z,70.96
2017-08-06T21:52:04.650Z,71.34
2017-08-06T21:54:30.589Z,71.35
2017-08-06T21:56:56.572Z,71.58
2017-08-06T21:59:22.420Z,71.40
2017-08-06T22:01:48.421Z,71.24
2017-08-06T22:04:14.264Z,70.91
2017-08-06T22:06:40.274Z,70.89
2017-08-06T22:09:06.266Z,71.01
2017-08-06T22:11:32.113Z,70.32
2017-08-06T22:13:58.048Z,70.48
2017-08-06T22:16:23.891Z,72.79
2017-08-06T22:18:49.755Z,73.95
2017-08-06T22:21:15.627Z,74.89
2017-08-06T22:23:41.516Z,73.55
2017-08-06T22:26:07.366Z,73.21
2017-08-06T22:28:33.235Z,72.55
2017-08-06T22:30:59.051Z,72.65
2017-08-06T22:33:24.943Z,73.26
2017-08-06T22:35:50.815Z,72.58
2017-08-06T22:38:16.648Z,72.97
2017-08-06T22:40:42.564Z,72.87
2017-08-06T22:43:08.499Z,73.21
2017-08-06T22:45:34.367Z,73.29
2017-08-06T22:48:00.187Z,73.19
2017-08-06T22:50:26.008Z,73.40
2017-08-06T22:52:51.869Z,73.45
2017-08-06T22:55:17.775Z,73.83
2017-08-06T22:57:43.607Z,73.28
2017-08-06T23:00:09.463Z,73.06
2017-08-06T23:02:35.321Z,72.38
2017-08-06T23:05:01.133Z,72.19
2017-08-06T23:07:26.983Z,72.41
2017-08-06T23:09:52.907Z,72.48
2017-08-06T23:12:18.763Z,72.94
2017-08-06T23:14:44.662Z,73.17
2017-08-06T23:17:10.623Z,74.77
2017-08-06T23:19:36.419Z,74.97
2017-08-06T23:22:02.272Z,74.47
2017-08-06T23:24:28.098Z,74.12
2017-08-06T23:26:53.937Z,74.20
2017-08-06T23:29:19.870Z,73.44
2017-08-06T23:31:45.760Z,72.87
2017-08-06T23:34:11.699Z,73.58
2017-08-06T23:36:37.537Z,74.17
2017-08-06T23:39:03.439Z,73.87
2017-08-06T23:41:29.392Z,73.36
2017-08-06T23:43:55.225Z,73.11
2017-08-06T23:46:21.094Z,73.24
2017-08-06T23:48:47.008Z,73.86
2017-08-06T23:51:12.828Z,74.74
2017-08-06T23:53:38.672Z,74.69
2017-08-06T23:56:04.551Z,74.89
2017-08-06T23:58:30.511Z,74.79
